sensor_id;sensor_type;location;lat;lon;timestamp;P1;durP1;ratioP1;P2;durP2;ratioP2
57025;SDS011;43961;52.940;6.834;2023-04-25T00:01:11;31.98;;;7.15;;
57025;SDS011;43961;52.940;6.834;2023-04-25T00:03:39;11.85;;;7.25;;
57025;SDS011;43961;52.940;6.834;2023-04-25T00:06:05;38.75;;;8.93;;
57025;SDS011;43961;52.940;6.834;2023-04-25T00:08:31;21.60;;;8.50;;
57025;SDS011;43961;52.940;6.834;2023-04-25T00:10:57;22.92;;;9.35;;
57025;SDS011;43961;52.940;6.834;2023-04-25T00:13:24;31.83;;;9.07;;
57025;SDS011;43961;52.940;6.834;2023-04-25T00:15:51;23.27;;;8.48;;
57025;SDS011;43961;52.940;6.834;2023-04-25T00:18:18;29.50;;;8.82;;
57025;SDS011;43961;52.940;6.834;2023-04-25T00:20:45;30.42;;;8.35;;
57025;SDS011;43961;52.940;6.834;2023-04-25T00:23:15;25.27;;;8.95;;
57025;SDS011;43961;52.940;6.834;2023-04-25T00:25:48;24.42;;;9.63;;
57025;SDS011;43961;52.940;6.834;2023-04-25T00:28:15;21.58;;;8.55;;
57025;SDS011;43961;52.940;6.834;2023-04-25T00:30:40;24.17;;;8.65;;
57025;SDS011;43961;52.940;6.834;2023-04-25T00:33:07;23.85;;;9.00;;
57025;SDS011;43961;52.940;6.834;2023-04-25T00:35:33;25.77;;;8.82;;
57025;SDS011;43961;52.940;6.834;2023-04-25T00:37:59;20.10;;;8.50;;
57025;SDS011;43961;52.940;6.834;2023-04-25T00:40:25;23.77;;;8.65;;
57025;SDS011;43961;52.940;6.834;2023-04-25T00:42:51;28.23;;;8.93;;
57025;SDS011;43961;52.940;6.834;2023-04-25T00:45:17;26.90;;;9.45;;
57025;SDS011;43961;52.940;6.834;2023-04-25T00:47:43;24.13;;;8.65;;
57025;SDS011;43961;52.940;6.834;2023-04-25T00:50:09;24.27;;;8.68;;
57025;SDS011;43961;52.940;6.834;2023-04-25T00:52:43;39.20;;;10.30;;
57025;SDS011;43961;52.940;6.834;2023-04-25T00:55:10;31.98;;;9.45;;
57025;SDS011;43961;52.940;6.834;2023-04-25T00:57:37;24.20;;;9.30;;
57025;SDS011;43961;52.940;6.834;2023-04-25T01:00:04;37.83;;;10.48;;
57025;SDS011;43961;52.940;6.834;2023-04-25T01:02:31;25.65;;;9.00;;
57025;SDS011;43961;52.940;6.834;2023-04-25T01:04:58;24.80;;;8.77;;
57025;SDS011;43961;52.940;6.834;2023-04-25T01:07:24;24.15;;;8.38;;
57025;SDS011;43961;52.940;6.834;2023-04-25T01:09:51;22.10;;;8.98;;
57025;SDS011;43961;52.940;6.834;2023-04-25T01:12:17;23.23;;;8.73;;
57025;SDS011;43961;52.940;6.834;2023-04-25T01:14:43;29.83;;;9.57;;
57025;SDS011;43961;52.940;6.834;2023-04-25T01:17:11;26.67;;;7.88;;
57025;SDS011;43961;52.940;6.834;2023-04-25T01:19:37;23.90;;;8.43;;
57025;SDS011;43961;52.940;6.834;2023-04-25T01:22:02;25.05;;;9.00;;
57025;SDS011;43961;52.940;6.834;2023-04-25T01:24:29;38.17;;;10.38;;
57025;SDS011;43961;52.940;6.834;2023-04-25T01:26:56;18.80;;;8.05;;
57025;SDS011;43961;52.940;6.834;2023-04-25T01:29:23;26.70;;;8.35;;
57025;SDS011;43961;52.940;6.834;2023-04-25T01:31:51;28.40;;;10.60;;
57025;SDS011;43961;52.940;6.834;2023-04-25T01:34:18;33.42;;;7.88;;
57025;SDS011;43961;52.940;6.834;2023-04-25T01:36:44;24.70;;;8.73;;
57025;SDS011;43961;52.940;6.834;2023-04-25T01:39:09;25.90;;;9.65;;
57025;SDS011;43961;52.940;6.834;2023-04-25T01:41:35;26.45;;;8.93;;
57025;SDS011;43961;52.940;6.834;2023-04-25T01:44:01;27.52;;;8.57;;
57025;SDS011;43961;52.940;6.834;2023-04-25T01:46:27;27.90;;;8.73;;
57025;SDS011;43961;52.940;6.834;2023-04-25T01:48:53;22.17;;;8.75;;
57025;SDS011;43961;52.940;6.834;2023-04-25T01:51:19;24.73;;;8.45;;
57025;SDS011;43961;52.940;6.834;2023-04-25T01:53:45;22.77;;;9.52;;
57025;SDS011;43961;52.940;6.834;2023-04-25T01:56:12;37.10;;;9.18;;
57025;SDS011;43961;52.940;6.834;2023-04-25T01:58:38;24.10;;;8.75;;
57025;SDS011;43961;52.940;6.834;2023-04-25T02:01:04;18.52;;;8.13;;
57025;SDS011;43961;52.940;6.834;2023-04-25T02:03:30;25.10;;;8.02;;
57025;SDS011;43961;52.940;6.834;2023-04-25T02:05:57;29.17;;;8.77;;
57025;SDS011;43961;52.940;6.834;2023-04-25T02:08:22;27.60;;;7.85;;
57025;SDS011;43961;52.940;6.834;2023-04-25T02:10:48;19.27;;;6.90;;
57025;SDS011;43961;52.940;6.834;2023-04-25T02:13:14;24.25;;;8.70;;
57025;SDS011;43961;52.940;6.834;2023-04-25T02:15:40;29.63;;;7.70;;
57025;SDS011;43961;52.940;6.834;2023-04-25T02:18:06;17.42;;;7.45;;
57025;SDS011;43961;52.940;6.834;2023-04-25T02:20:32;17.25;;;7.80;;
57025;SDS011;43961;52.940;6.834;2023-04-25T02:22:57;30.88;;;9.45;;
57025;SDS011;43961;52.940;6.834;2023-04-25T02:25:23;34.80;;;9.68;;
57025;SDS011;43961;52.940;6.834;2023-04-25T02:27:49;20.50;;;7.53;;
57025;SDS011;43961;52.940;6.834;2023-04-25T02:30:16;27.15;;;8.20;;
57025;SDS011;43961;52.940;6.834;2023-04-25T02:32:42;20.40;;;8.73;;
57025;SDS011;43961;52.940;6.834;2023-04-25T02:35:08;19.40;;;8.35;;
57025;SDS011;43961;52.940;6.834;2023-04-25T02:37:34;23.25;;;8.32;;
57025;SDS011;43961;52.940;6.834;2023-04-25T02:40:04;27.92;;;9.57;;
57025;SDS011;43961;52.940;6.834;2023-04-25T02:42:30;22.05;;;7.60;;
57025;SDS011;43961;52.940;6.834;2023-04-25T02:44:56;21.45;;;8.57;;
57025;SDS011;43961;52.940;6.834;2023-04-25T02:47:22;24.05;;;8.10;;
57025;SDS011;43961;52.940;6.834;2023-04-25T02:49:48;20.63;;;7.72;;
57025;SDS011;43961;52.940;6.834;2023-04-25T02:52:14;16.73;;;7.32;;
57025;SDS011;43961;52.940;6.834;2023-04-25T02:54:40;22.02;;;8.23;;
57025;SDS011;43961;52.940;6.834;2023-04-25T02:57:06;25.50;;;8.88;;
57025;SDS011;43961;52.940;6.834;2023-04-25T02:59:32;28.63;;;7.72;;
57025;SDS011;43961;52.940;6.834;2023-04-25T03:01:58;26.83;;;8.65;;
57025;SDS011;43961;52.940;6.834;2023-04-25T03:04:23;26.60;;;8.05;;
57025;SDS011;43961;52.940;6.834;2023-04-25T03:06:50;32.13;;;7.47;;
57025;SDS011;43961;52.940;6.834;2023-04-25T03:09:16;30.98;;;7.70;;
57025;SDS011;43961;52.940;6.834;2023-04-25T03:11:43;17.85;;;7.43;;
57025;SDS011;43961;52.940;6.834;2023-04-25T03:14:10;20.85;;;6.85;;
57025;SDS011;43961;52.940;6.834;2023-04-25T03:16:35;19.55;;;7.50;;
57025;SDS011;43961;52.940;6.834;2023-04-25T03:19:02;29.90;;;7.65;;
57025;SDS011;43961;52.940;6.834;2023-04-25T03:21:27;19.42;;;6.88;;
57025;SDS011;43961;52.940;6.834;2023-04-25T03:23:53;22.60;;;7.75;;
57025;SDS011;43961;52.940;6.834;2023-04-25T03:26:19;16.98;;;6.88;;
57025;SDS011;43961;52.940;6.834;2023-04-25T03:28:45;21.67;;;6.90;;
57025;SDS011;43961;52.940;6.834;2023-04-25T03:31:11;21.80;;;7.63;;
57025;SDS011;43961;52.940;6.834;2023-04-25T03:33:37;19.00;;;7.53;;
57025;SDS011;43961;52.940;6.834;2023-04-25T03:36:02;23.65;;;6.82;;
57025;SDS011;43961;52.940;6.834;2023-04-25T03:38:28;15.88;;;6.45;;
57025;SDS011;43961;52.940;6.834;2023-04-25T03:40:54;21.58;;;6.30;;
57025;SDS011;43961;52.940;6.834;2023-04-25T03:43:22;17.77;;;6.50;;
57025;SDS011;43961;52.940;6.834;2023-04-25T03:45:48;14.93;;;6.68;;
57025;SDS011;43961;52.940;6.834;2023-04-25T03:48:13;24.25;;;6.18;;
57025;SDS011;43961;52.940;6.834;2023-04-25T03:50:39;32.10;;;8.30;;
57025;SDS011;43961;52.940;6.834;2023-04-25T03:53:05;25.48;;;7.35;;
57025;SDS011;43961;52.940;6.834;2023-04-25T03:55:30;22.27;;;7.18;;
57025;SDS011;43961;52.940;6.834;2023-04-25T03:57:57;19.00;;;5.68;;
57025;SDS011;43961;52.940;6.834;2023-04-25T04:00:23;24.50;;;7.07;;
57025;SDS011;43961;52.940;6.834;2023-04-25T04:02:50;23.15;;;6.65;;
57025;SDS011;43961;52.940;6.834;2023-04-25T04:05:16;29.30;;;6.93;;
57025;SDS011;43961;52.940;6.834;2023-04-25T04:07:42;24.00;;;7.03;;
57025;SDS011;43961;52.940;6.834;2023-04-25T04:10:08;34.58;;;8.18;;
57025;SDS011;43961;52.940;6.834;2023-04-25T04:12:35;21.30;;;6.45;;
57025;SDS011;43961;52.940;6.834;2023-04-25T04:15:02;24.52;;;6.22;;
57025;SDS011;43961;52.940;6.834;2023-04-25T04:17:29;12.60;;;5.83;;
57025;SDS011;43961;52.940;6.834;2023-04-25T04:19:55;16.20;;;5.90;;
57025;SDS011;43961;52.940;6.834;2023-04-25T04:22:21;23.42;;;6.70;;
57025;SDS011;43961;52.940;6.834;2023-04-25T04:24:48;22.02;;;6.45;;
57025;SDS011;43961;52.940;6.834;2023-04-25T04:27:15;17.60;;;6.05;;
57025;SDS011;43961;52.940;6.834;2023-04-25T04:29:44;11.73;;;4.88;;
57025;SDS011;43961;52.940;6.834;2023-04-25T04:32:11;24.38;;;7.32;;
57025;SDS011;43961;52.940;6.834;2023-04-25T04:34:38;32.80;;;7.28;;
57025;SDS011;43961;52.940;6.834;2023-04-25T04:37:04;20.02;;;6.20;;
57025;SDS011;43961;52.940;6.834;2023-04-25T04:39:30;28.85;;;7.03;;
57025;SDS011;43961;52.940;6.834;2023-04-25T04:41:56;29.10;;;5.93;;
57025;SDS011;43961;52.940;6.834;2023-04-25T04:44:22;13.73;;;5.15;;
57025;SDS011;43961;52.940;6.834;2023-04-25T04:46:47;23.85;;;6.35;;
57025;SDS011;43961;52.940;6.834;2023-04-25T04:49:13;14.48;;;5.15;;
57025;SDS011;43961;52.940;6.834;2023-04-25T04:51:39;16.92;;;5.85;;
57025;SDS011;43961;52.940;6.834;2023-04-25T04:54:06;14.27;;;5.15;;
57025;SDS011;43961;52.940;6.834;2023-04-25T04:56:31;14.02;;;6.00;;
57025;SDS011;43961;52.940;6.834;2023-04-25T04:58:58;16.30;;;5.90;;
57025;SDS011;43961;52.940;6.834;2023-04-25T05:01:25;17.23;;;5.43;;
57025;SDS011;43961;52.940;6.834;2023-04-25T05:03:51;18.60;;;4.97;;
57025;SDS011;43961;52.940;6.834;2023-04-25T05:06:20;15.68;;;5.65;;
57025;SDS011;43961;52.940;6.834;2023-04-25T05:08:45;9.57;;;4.85;;
57025;SDS011;43961;52.940;6.834;2023-04-25T05:11:11;14.98;;;4.45;;
57025;SDS011;43961;52.940;6.834;2023-04-25T05:13:37;10.02;;;4.00;;
57025;SDS011;43961;52.940;6.834;2023-04-25T05:16:03;14.90;;;4.53;;
57025;SDS011;43961;52.940;6.834;2023-04-25T05:18:28;11.05;;;4.20;;
57025;SDS011;43961;52.940;6.834;2023-04-25T05:20:55;16.08;;;4.28;;
57025;SDS011;43961;52.940;6.834;2023-04-25T05:23:22;8.15;;;2.95;;
57025;SDS011;43961;52.940;6.834;2023-04-25T05:25:49;9.13;;;3.40;;
57025;SDS011;43961;52.940;6.834;2023-04-25T05:28:14;7.50;;;3.80;;
57025;SDS011;43961;52.940;6.834;2023-04-25T05:30:41;9.38;;;3.50;;
57025;SDS011;43961;52.940;6.834;2023-04-25T05:33:07;13.27;;;3.83;;
57025;SDS011;43961;52.940;6.834;2023-04-25T05:35:32;17.92;;;4.40;;
57025;SDS011;43961;52.940;6.834;2023-04-25T05:37:58;8.02;;;3.85;;
57025;SDS011;43961;52.940;6.834;2023-04-25T05:40:24;30.42;;;4.72;;
57025;SDS011;43961;52.940;6.834;2023-04-25T05:42:49;9.13;;;4.68;;
57025;SDS011;43961;52.940;6.834;2023-04-25T05:45:15;17.00;;;4.10;;
57025;SDS011;43961;52.940;6.834;2023-04-25T05:47:42;11.88;;;3.42;;
57025;SDS011;43961;52.940;6.834;2023-04-25T05:50:08;14.65;;;4.53;;
57025;SDS011;43961;52.940;6.834;2023-04-25T05:52:34;20.05;;;4.32;;
57025;SDS011;43961;52.940;6.834;2023-04-25T05:54:59;14.73;;;4.18;;
57025;SDS011;43961;52.940;6.834;2023-04-25T05:57:25;14.93;;;4.28;;
57025;SDS011;43961;52.940;6.834;2023-04-25T05:59:52;13.00;;;4.07;;
57025;SDS011;43961;52.940;6.834;2023-04-25T06:02:18;15.27;;;5.35;;
57025;SDS011;43961;52.940;6.834;2023-04-25T06:04:45;11.87;;;4.70;;
57025;SDS011;43961;52.940;6.834;2023-04-25T06:07:11;21.30;;;5.32;;
57025;SDS011;43961;52.940;6.834;2023-04-25T06:09:38;14.00;;;4.45;;
57025;SDS011;43961;52.940;6.834;2023-04-25T06:12:06;12.48;;;4.05;;
57025;SDS011;43961;52.940;6.834;2023-04-25T06:14:32;17.58;;;5.35;;
57025;SDS011;43961;52.940;6.834;2023-04-25T06:17:00;17.45;;;4.25;;
57025;SDS011;43961;52.940;6.834;2023-04-25T06:19:32;27.48;;;4.78;;
57025;SDS011;43961;52.940;6.834;2023-04-25T06:21:58;18.63;;;4.55;;
57025;SDS011;43961;52.940;6.834;2023-04-25T06:24:23;11.82;;;4.07;;
57025;SDS011;43961;52.940;6.834;2023-04-25T06:26:49;14.07;;;5.18;;
57025;SDS011;43961;52.940;6.834;2023-04-25T06:29:17;12.50;;;4.15;;
57025;SDS011;43961;52.940;6.834;2023-04-25T06:31:42;17.47;;;5.17;;
57025;SDS011;43961;52.940;6.834;2023-04-25T06:34:08;9.30;;;4.20;;
57025;SDS011;43961;52.940;6.834;2023-04-25T06:36:34;18.80;;;5.05;;
57025;SDS011;43961;52.940;6.834;2023-04-25T06:38:59;17.08;;;4.32;;
57025;SDS011;43961;52.940;6.834;2023-04-25T06:41:25;15.65;;;5.60;;
57025;SDS011;43961;52.940;6.834;2023-04-25T06:43:52;14.52;;;4.50;;
57025;SDS011;43961;52.940;6.834;2023-04-25T06:46:17;11.10;;;3.80;;
57025;SDS011;43961;52.940;6.834;2023-04-25T06:48:43;13.88;;;4.93;;
57025;SDS011;43961;52.940;6.834;2023-04-25T06:51:09;11.30;;;3.85;;
57025;SDS011;43961;52.940;6.834;2023-04-25T06:53:35;15.10;;;4.53;;
57025;SDS011;43961;52.940;6.834;2023-04-25T06:56:02;15.23;;;4.72;;
57025;SDS011;43961;52.940;6.834;2023-04-25T06:58:28;15.15;;;4.97;;
57025;SDS011;43961;52.940;6.834;2023-04-25T07:00:54;14.27;;;3.90;;
57025;SDS011;43961;52.940;6.834;2023-04-25T07:03:19;13.25;;;3.78;;
57025;SDS011;43961;52.940;6.834;2023-04-25T07:05:45;19.92;;;4.70;;
57025;SDS011;43961;52.940;6.834;2023-04-25T07:08:11;20.30;;;5.40;;
57025;SDS011;43961;52.940;6.834;2023-04-25T07:10:37;10.80;;;4.10;;
57025;SDS011;43961;52.940;6.834;2023-04-25T07:13:03;11.75;;;3.55;;
57025;SDS011;43961;52.940;6.834;2023-04-25T07:15:28;13.50;;;3.38;;
57025;SDS011;43961;52.940;6.834;2023-04-25T07:17:54;15.43;;;3.85;;
57025;SDS011;43961;52.940;6.834;2023-04-25T07:20:20;13.18;;;4.78;;
57025;SDS011;43961;52.940;6.834;2023-04-25T07:22:45;11.48;;;3.33;;
57025;SDS011;43961;52.940;6.834;2023-04-25T07:25:11;12.43;;;3.58;;
57025;SDS011;43961;52.940;6.834;2023-04-25T07:27:38;11.07;;;3.80;;
57025;SDS011;43961;52.940;6.834;2023-04-25T07:30:04;10.35;;;3.58;;
57025;SDS011;43961;52.940;6.834;2023-04-25T07:32:31;8.27;;;3.53;;
57025;SDS011;43961;52.940;6.834;2023-04-25T07:34:57;16.45;;;4.40;;
57025;SDS011;43961;52.940;6.834;2023-04-25T07:37:22;13.32;;;3.88;;
57025;SDS011;43961;52.940;6.834;2023-04-25T07:39:48;12.88;;;4.07;;
57025;SDS011;43961;52.940;6.834;2023-04-25T07:42:14;10.57;;;3.90;;
57025;SDS011;43961;52.940;6.834;2023-04-25T07:44:39;8.20;;;3.42;;
57025;SDS011;43961;52.940;6.834;2023-04-25T07:47:06;7.80;;;2.53;;
57025;SDS011;43961;52.940;6.834;2023-04-25T07:49:36;11.73;;;3.35;;
57025;SDS011;43961;52.940;6.834;2023-04-25T07:52:03;9.35;;;2.75;;
57025;SDS011;43961;52.940;6.834;2023-04-25T07:54:30;13.80;;;3.53;;
57025;SDS011;43961;52.940;6.834;2023-04-25T07:56:57;11.25;;;3.05;;
57025;SDS011;43961;52.940;6.834;2023-04-25T07:59:22;21.08;;;4.07;;
57025;SDS011;43961;52.940;6.834;2023-04-25T08:01:48;10.95;;;3.17;;
57025;SDS011;43961;52.940;6.834;2023-04-25T08:04:14;16.50;;;4.95;;
57025;SDS011;43961;52.940;6.834;2023-04-25T08:06:39;9.70;;;3.75;;
57025;SDS011;43961;52.940;6.834;2023-04-25T08:09:05;6.43;;;2.35;;
57025;SDS011;43961;52.940;6.834;2023-04-25T08:11:31;9.98;;;3.65;;
57025;SDS011;43961;52.940;6.834;2023-04-25T08:13:57;15.30;;;2.53;;
57025;SDS011;43961;52.940;6.834;2023-04-25T08:16:23;12.80;;;3.40;;
57025;SDS011;43961;52.940;6.834;2023-04-25T08:18:49;7.70;;;2.58;;
57025;SDS011;43961;52.940;6.834;2023-04-25T08:21:15;13.75;;;3.30;;
57025;SDS011;43961;52.940;6.834;2023-04-25T08:23:41;7.05;;;2.90;;
57025;SDS011;43961;52.940;6.834;2023-04-25T08:26:08;6.55;;;2.72;;
57025;SDS011;43961;52.940;6.834;2023-04-25T08:28:34;10.48;;;2.75;;
57025;SDS011;43961;52.940;6.834;2023-04-25T08:31:00;9.63;;;3.03;;
57025;SDS011;43961;52.940;6.834;2023-04-25T08:33:25;5.38;;;3.10;;
57025;SDS011;43961;52.940;6.834;2023-04-25T08:35:51;15.30;;;3.45;;
57025;SDS011;43961;52.940;6.834;2023-04-25T08:38:17;4.97;;;2.83;;
57025;SDS011;43961;52.940;6.834;2023-04-25T08:40:43;13.45;;;3.35;;
57025;SDS011;43961;52.940;6.834;2023-04-25T08:43:09;12.52;;;3.28;;
57025;SDS011;43961;52.940;6.834;2023-04-25T08:45:40;7.53;;;2.92;;
57025;SDS011;43961;52.940;6.834;2023-04-25T08:48:10;13.83;;;3.30;;
57025;SDS011;43961;52.940;6.834;2023-04-25T08:50:52;7.63;;;2.53;;
57025;SDS011;43961;52.940;6.834;2023-04-25T08:53:26;8.00;;;2.40;;
57025;SDS011;43961;52.940;6.834;2023-04-25T08:55:53;7.40;;;2.38;;
57025;SDS011;43961;52.940;6.834;2023-04-25T08:58:21;11.18;;;2.75;;
57025;SDS011;43961;52.940;6.834;2023-04-25T09:00:48;11.90;;;3.30;;
57025;SDS011;43961;52.940;6.834;2023-04-25T09:03:15;12.45;;;2.60;;
57025;SDS011;43961;52.940;6.834;2023-04-25T09:05:41;21.95;;;2.92;;
57025;SDS011;43961;52.940;6.834;2023-04-25T09:08:08;5.72;;;1.73;;
57025;SDS011;43961;52.940;6.834;2023-04-25T09:10:33;7.47;;;1.98;;
57025;SDS011;43961;52.940;6.834;2023-04-25T09:13:08;5.72;;;1.92;;
57025;SDS011;43961;52.940;6.834;2023-04-25T09:15:49;3.80;;;1.98;;
57025;SDS011;43961;52.940;6.834;2023-04-25T09:18:25;6.63;;;2.00;;
57025;SDS011;43961;52.940;6.834;2023-04-25T09:20:55;8.45;;;2.63;;
57025;SDS011;43961;52.940;6.834;2023-04-25T09:23:29;6.30;;;1.88;;
57025;SDS011;43961;52.940;6.834;2023-04-25T09:25:56;4.55;;;2.10;;
57025;SDS011;43961;52.940;6.834;2023-04-25T09:28:25;10.88;;;2.35;;
57025;SDS011;43961;52.940;6.834;2023-04-25T09:30:55;5.60;;;2.40;;
57025;SDS011;43961;52.940;6.834;2023-04-25T09:33:29;3.15;;;2.00;;
57025;SDS011;43961;52.940;6.834;2023-04-25T09:36:03;7.53;;;2.33;;
57025;SDS011;43961;52.940;6.834;2023-04-25T09:38:39;5.38;;;1.73;;
57025;SDS011;43961;52.940;6.834;2023-04-25T09:41:07;4.95;;;2.10;;
57025;SDS011;43961;52.940;6.834;2023-04-25T09:43:34;5.15;;;1.65;;
57025;SDS011;43961;52.940;6.834;2023-04-25T09:46:00;8.85;;;2.40;;
57025;SDS011;43961;52.940;6.834;2023-04-25T09:48:26;6.38;;;2.03;;
57025;SDS011;43961;52.940;6.834;2023-04-25T09:51:10;8.60;;;2.38;;
57025;SDS011;43961;52.940;6.834;2023-04-25T09:53:39;8.15;;;2.65;;
57025;SDS011;43961;52.940;6.834;2023-04-25T09:56:07;13.93;;;2.58;;
57025;SDS011;43961;52.940;6.834;2023-04-25T09:58:34;6.57;;;2.80;;
57025;SDS011;43961;52.940;6.834;2023-04-25T10:01:01;5.03;;;2.28;;
57025;SDS011;43961;52.940;6.834;2023-04-25T10:03:32;6.68;;;2.83;;
57025;SDS011;43961;52.940;6.834;2023-04-25T10:06:00;10.38;;;2.92;;
57025;SDS011;43961;52.940;6.834;2023-04-25T10:08:31;12.73;;;2.60;;
57025;SDS011;43961;52.940;6.834;2023-04-25T10:11:06;4.43;;;2.65;;
57025;SDS011;43961;52.940;6.834;2023-04-25T10:13:33;16.42;;;4.05;;
57025;SDS011;43961;52.940;6.834;2023-04-25T10:16:00;7.07;;;2.78;;
57025;SDS011;43961;52.940;6.834;2023-04-25T10:18:28;6.40;;;3.20;;
57025;SDS011;43961;52.940;6.834;2023-04-25T10:20:55;4.53;;;2.17;;
57025;SDS011;43961;52.940;6.834;2023-04-25T10:23:23;9.30;;;2.97;;
57025;SDS011;43961;52.940;6.834;2023-04-25T10:25:50;4.78;;;1.80;;
57025;SDS011;43961;52.940;6.834;2023-04-25T10:28:17;9.43;;;3.08;;
57025;SDS011;43961;52.940;6.834;2023-04-25T10:31:16;3.03;;;2.00;;
57025;SDS011;43961;52.940;6.834;2023-04-25T10:33:36;9.93;;;3.03;;
57025;SDS011;43961;52.940;6.834;2023-04-25T10:38:39;5.35;;;3.08;;
57025;SDS011;43961;52.940;6.834;2023-04-25T10:41:06;8.52;;;2.30;;
57025;SDS011;43961;52.940;6.834;2023-04-25T10:43:42;7.30;;;3.28;;
57025;SDS011;43961;52.940;6.834;2023-04-25T10:46:18;12.07;;;3.85;;
57025;SDS011;43961;52.940;6.834;2023-04-25T10:48:51;12.80;;;3.28;;
57025;SDS011;43961;52.940;6.834;2023-04-25T10:51:24;8.90;;;3.47;;
57025;SDS011;43961;52.940;6.834;2023-04-25T10:54:01;9.15;;;3.17;;
57025;SDS011;43961;52.940;6.834;2023-04-25T10:56:29;7.70;;;3.38;;
57025;SDS011;43961;52.940;6.834;2023-04-25T11:01:39;13.65;;;3.78;;
57025;SDS011;43961;52.940;6.834;2023-04-25T11:04:06;6.50;;;2.55;;
57025;SDS011;43961;52.940;6.834;2023-04-25T11:06:46;7.85;;;2.90;;
57025;SDS011;43961;52.940;6.834;2023-04-25T11:09:27;12.10;;;3.97;;
57025;SDS011;43961;52.940;6.834;2023-04-25T11:11:56;13.25;;;3.90;;
57025;SDS011;43961;52.940;6.834;2023-04-25T11:14:23;10.95;;;3.30;;
57025;SDS011;43961;52.940;6.834;2023-04-25T11:16:55;12.68;;;3.53;;
57025;SDS011;43961;52.940;6.834;2023-04-25T11:19:22;11.45;;;3.00;;
57025;SDS011;43961;52.940;6.834;2023-04-25T11:21:48;8.68;;;2.95;;
57025;SDS011;43961;52.940;6.834;2023-04-25T11:24:17;7.25;;;3.58;;
57025;SDS011;43961;52.940;6.834;2023-04-25T11:26:46;9.13;;;2.67;;
57025;SDS011;43961;52.940;6.834;2023-04-25T11:29:13;14.65;;;3.33;;
57025;SDS011;43961;52.940;6.834;2023-04-25T11:31:39;10.00;;;2.88;;
57025;SDS011;43961;52.940;6.834;2023-04-25T11:34:18;7.65;;;2.70;;
57025;SDS011;43961;52.940;6.834;2023-04-25T11:36:44;12.85;;;3.88;;
57025;SDS011;43961;52.940;6.834;2023-04-25T11:39:11;19.13;;;4.32;;
57025;SDS011;43961;52.940;6.834;2023-04-25T11:41:37;8.45;;;3.42;;
57025;SDS011;43961;52.940;6.834;2023-04-25T11:44:03;10.65;;;3.15;;
57025;SDS011;43961;52.940;6.834;2023-04-25T11:46:30;11.65;;;3.38;;
57025;SDS011;43961;52.940;6.834;2023-04-25T11:48:56;8.65;;;3.30;;
57025;SDS011;43961;52.940;6.834;2023-04-25T11:51:22;6.05;;;2.42;;
57025;SDS011;43961;52.940;6.834;2023-04-25T11:53:48;4.50;;;2.50;;
57025;SDS011;43961;52.940;6.834;2023-04-25T11:56:13;4.88;;;2.05;;
57025;SDS011;43961;52.940;6.834;2023-04-25T11:58:58;7.63;;;3.00;;
57025;SDS011;43961;52.940;6.834;2023-04-25T12:01:29;9.02;;;2.78;;
57025;SDS011;43961;52.940;6.834;2023-04-25T12:03:57;8.40;;;2.65;;
57025;SDS011;43961;52.940;6.834;2023-04-25T12:06:29;6.82;;;2.92;;
57025;SDS011;43961;52.940;6.834;2023-04-25T12:09:01;7.47;;;3.30;;
57025;SDS011;43961;52.940;6.834;2023-04-25T12:11:29;5.28;;;2.90;;
57025;SDS011;43961;52.940;6.834;2023-04-25T12:14:01;11.30;;;3.10;;
57025;SDS011;43961;52.940;6.834;2023-04-25T12:16:27;11.32;;;4.22;;
57025;SDS011;43961;52.940;6.834;2023-04-25T12:18:53;13.00;;;3.13;;
57025;SDS011;43961;52.940;6.834;2023-04-25T12:21:21;38.88;;;5.88;;
57025;SDS011;43961;52.940;6.834;2023-04-25T12:23:46;14.80;;;3.10;;
57025;SDS011;43961;52.940;6.834;2023-04-25T12:26:12;14.55;;;3.40;;
57025;SDS011;43961;52.940;6.834;2023-04-25T12:28:38;18.95;;;5.15;;
57025;SDS011;43961;52.940;6.834;2023-04-25T12:31:04;9.65;;;4.47;;
57025;SDS011;43961;52.940;6.834;2023-04-25T12:33:34;10.70;;;4.15;;
57025;SDS011;43961;52.940;6.834;2023-04-25T12:36:01;7.18;;;3.10;;
57025;SDS011;43961;52.940;6.834;2023-04-25T12:38:41;12.57;;;3.38;;
57025;SDS011;43961;52.940;6.834;2023-04-25T12:41:08;5.45;;;3.15;;
57025;SDS011;43961;52.940;6.834;2023-04-25T12:43:34;4.97;;;2.10;;
57025;SDS011;43961;52.940;6.834;2023-04-25T12:46:00;11.57;;;2.60;;
57025;SDS011;43961;52.940;6.834;2023-04-25T12:48:25;10.57;;;2.45;;
57025;SDS011;43961;52.940;6.834;2023-04-25T12:50:51;10.98;;;3.45;;
57025;SDS011;43961;52.940;6.834;2023-04-25T12:53:20;5.45;;;3.17;;
57025;SDS011;43961;52.940;6.834;2023-04-25T12:55:48;7.53;;;2.20;;
57025;SDS011;43961;52.940;6.834;2023-04-25T12:58:15;8.75;;;3.10;;
57025;SDS011;43961;52.940;6.834;2023-04-25T13:00:42;10.05;;;3.20;;
57025;SDS011;43961;52.940;6.834;2023-04-25T13:03:08;11.07;;;3.08;;
57025;SDS011;43961;52.940;6.834;2023-04-25T13:05:37;6.55;;;3.22;;
57025;SDS011;43961;52.940;6.834;2023-04-25T13:08:03;8.27;;;3.40;;
57025;SDS011;43961;52.940;6.834;2023-04-25T13:10:29;12.48;;;4.57;;
57025;SDS011;43961;52.940;6.834;2023-04-25T13:12:55;16.38;;;3.65;;
57025;SDS011;43961;52.940;6.834;2023-04-25T13:15:20;16.00;;;3.90;;
57025;SDS011;43961;52.940;6.834;2023-04-25T13:17:46;7.40;;;3.30;;
57025;SDS011;43961;52.940;6.834;2023-04-25T13:20:12;5.03;;;3.10;;
57025;SDS011;43961;52.940;6.834;2023-04-25T13:22:40;10.48;;;2.80;;
57025;SDS011;43961;52.940;6.834;2023-04-25T13:25:06;12.90;;;3.40;;
57025;SDS011;43961;52.940;6.834;2023-04-25T13:27:33;3.85;;;2.20;;
57025;SDS011;43961;52.940;6.834;2023-04-25T13:30:01;9.45;;;3.08;;
57025;SDS011;43961;52.940;6.834;2023-04-25T13:32:32;7.53;;;2.63;;
57025;SDS011;43961;52.940;6.834;2023-04-25T13:34:59;8.00;;;3.15;;
57025;SDS011;43961;52.940;6.834;2023-04-25T13:37:25;13.07;;;2.63;;
57025;SDS011;43961;52.940;6.834;2023-04-25T13:39:51;8.57;;;2.72;;
57025;SDS011;43961;52.940;6.834;2023-04-25T13:42:17;11.50;;;3.67;;
57025;SDS011;43961;52.940;6.834;2023-04-25T13:44:43;11.73;;;4.07;;
57025;SDS011;43961;52.940;6.834;2023-04-25T13:47:08;8.73;;;2.85;;
57025;SDS011;43961;52.940;6.834;2023-04-25T13:49:34;7.03;;;3.08;;
57025;SDS011;43961;52.940;6.834;2023-04-25T13:52:00;11.20;;;3.03;;
57025;SDS011;43961;52.940;6.834;2023-04-25T13:54:25;19.13;;;4.38;;
57025;SDS011;43961;52.940;6.834;2023-04-25T13:56:51;6.47;;;2.92;;
57025;SDS011;43961;52.940;6.834;2023-04-25T13:59:17;5.72;;;2.80;;
57025;SDS011;43961;52.940;6.834;2023-04-25T14:01:43;5.00;;;2.35;;
57025;SDS011;43961;52.940;6.834;2023-04-25T14:04:10;8.63;;;2.85;;
57025;SDS011;43961;52.940;6.834;2023-04-25T14:06:36;6.88;;;2.92;;
57025;SDS011;43961;52.940;6.834;2023-04-25T14:09:02;14.18;;;3.30;;
57025;SDS011;43961;52.940;6.834;2023-04-25T14:11:29;11.80;;;3.33;;
57025;SDS011;43961;52.940;6.834;2023-04-25T14:13:55;8.82;;;3.55;;
57025;SDS011;43961;52.940;6.834;2023-04-25T14:16:21;14.65;;;3.97;;
57025;SDS011;43961;52.940;6.834;2023-04-25T14:18:47;14.98;;;3.78;;
57025;SDS011;43961;52.940;6.834;2023-04-25T14:21:13;9.82;;;3.28;;
57025;SDS011;43961;52.940;6.834;2023-04-25T14:23:39;12.57;;;4.47;;
57025;SDS011;43961;52.940;6.834;2023-04-25T14:26:05;14.93;;;3.72;;
57025;SDS011;43961;52.940;6.834;2023-04-25T14:28:32;12.23;;;3.47;;
57025;SDS011;43961;52.940;6.834;2023-04-25T14:30:57;8.88;;;3.53;;
57025;SDS011;43961;52.940;6.834;2023-04-25T14:33:23;8.75;;;3.30;;
57025;SDS011;43961;52.940;6.834;2023-04-25T14:35:49;10.23;;;3.50;;
57025;SDS011;43961;52.940;6.834;2023-04-25T14:38:14;8.75;;;2.55;;
57025;SDS011;43961;52.940;6.834;2023-04-25T14:40:40;9.00;;;2.85;;
57025;SDS011;43961;52.940;6.834;2023-04-25T14:43:06;10.18;;;2.80;;